createdAt,value
2023-04-05T00:02:03.273Z,99.90
2023-04-05T00:04:34.614Z,99.90
2023-04-05T00:07:02.633Z,99.90
2023-04-05T00:09:31.120Z,99.90
2023-04-05T00:11:58.061Z,99.90
2023-04-05T00:14:26.021Z,99.90
2023-04-05T00:16:53.023Z,99.90
2023-04-05T00:19:23.251Z,99.90
2023-04-05T00:21:50.443Z,99.90
2023-04-05T00:24:17.369Z,99.90
2023-04-05T00:26:44.236Z,99.90
2023-04-05T00:29:11.230Z,99.90
2023-04-05T00:31:38.246Z,99.90
2023-04-05T00:34:09.166Z,99.90
2023-04-05T00:36:36.500Z,99.90
2023-04-05T00:39:03.750Z,99.90
2023-04-05T00:41:30.796Z,99.90
2023-04-05T00:43:57.937Z,99.90
2023-04-05T00:46:24.926Z,99.90
2023-04-05T00:48:51.984Z,99.90
2023-04-05T00:51:20.316Z,99.90
2023-04-05T00:53:48.288Z,99.90
2023-04-05T00:56:15.825Z,99.90
2023-04-05T00:58:42.977Z,99.90
2023-04-05T01:01:17.011Z,99.90
2023-04-05T01:03:49.392Z,99.90
2023-04-05T01:06:48.636Z,99.90
2023-04-05T01:09:42.036Z,99.90
2023-04-05T01:12:12.374Z,99.90
2023-04-05T01:14:47.214Z,99.90
2023-04-05T01:17:14.253Z,99.90
2023-04-05T01:19:42.201Z,99.90
2023-04-05T01:22:30.124Z,99.90
2023-04-05T01:25:30.945Z,99.90
2023-04-05T01:28:25.394Z,99.90
2023-04-05T01:31:20.837Z,99.90
2023-04-05T01:34:05.935Z,99.90
2023-04-05T01:36:48.470Z,99.90
2023-04-05T01:39:20.109Z,99.90
2023-04-05T01:41:47.400Z,99.90
2023-04-05T01:44:14.359Z,99.90
2023-04-05T01:46:41.417Z,99.90
2023-04-05T01:49:08.801Z,99.90
2023-04-05T01:51:35.846Z,99.90
2023-04-05T01:54:02.728Z,99.90
2023-04-05T01:56:29.583Z,99.90
2023-04-05T01:58:56.616Z,99.90
2023-04-05T02:01:23.710Z,99.90
2023-04-05T02:03:50.778Z,99.90
2023-04-05T02:06:17.731Z,99.90
2023-04-05T02:08:44.742Z,99.90
2023-04-05T02:11:11.656Z,99.90
2023-04-05T02:13:38.576Z,99.90
2023-04-05T02:16:05.667Z,99.90
2023-04-05T02:18:32.652Z,99.90
2023-04-05T02:21:04.752Z,99.90
2023-04-05T02:23:32.699Z,99.90
2023-04-05T02:25:59.761Z,99.90
2023-04-05T02:28:27.150Z,99.90
2023-04-05T02:30:54.277Z,99.90
2023-04-05T02:33:22.901Z,99.90
2023-04-05T02:35:51.775Z,99.90
2023-04-05T02:38:18.764Z,99.90
2023-04-05T02:40:52.121Z,99.90
2023-04-05T02:43:19.061Z,99.90
2023-04-05T02:45:47.296Z,99.90
2023-04-05T02:48:14.332Z,99.90
2023-04-05T02:50:41.583Z,99.90
2023-04-05T02:53:09.588Z,99.90
2023-04-05T02:55:36.439Z,99.90
2023-04-05T02:58:03.338Z,99.90
2023-04-05T03:00:30.371Z,99.90
2023-04-05T03:02:57.306Z,99.90
2023-04-05T03:05:24.250Z,99.90
2023-04-05T03:07:52.266Z,99.90
2023-04-05T03:10:22.719Z,99.90
2023-04-05T03:12:51.617Z,99.90
2023-04-05T03:15:18.674Z,99.90
2023-04-05T03:17:46.074Z,99.90
2023-04-05T03:20:13.339Z,99.90
2023-04-05T03:22:41.174Z,99.90
2023-04-05T03:25:08.172Z,99.90
2023-04-05T03:27:35.168Z,99.90
2023-04-05T03:30:02.360Z,99.90
2023-04-05T03:32:29.321Z,99.90
2023-04-05T03:34:56.833Z,99.90
2023-04-05T03:37:23.833Z,99.90
2023-04-05T03:39:51.285Z,99.90
2023-04-05T03:42:18.283Z,99.90
2023-04-05T03:44:45.274Z,99.90
2023-04-05T03:47:13.273Z,99.90
2023-04-05T03:49:41.179Z,99.90
2023-04-05T03:52:08.766Z,99.90
2023-04-05T03:54:36.697Z,99.90
2023-04-05T03:57:03.726Z,99.90
2023-04-05T03:59:30.774Z,99.90
2023-04-05T04:01:57.655Z,99.90
2023-04-05T04:04:24.544Z,99.90
2023-04-05T04:06:51.754Z,99.90
2023-04-05T04:09:19.685Z,99.90
2023-04-05T04:11:46.769Z,99.90
2023-04-05T04:14:13.696Z,99.90
2023-04-05T04:16:40.705Z,99.90
2023-04-05T04:19:07.639Z,99.90
2023-04-05T04:21:35.998Z,99.90
2023-04-05T04:24:03.000Z,99.90
2023-04-05T04:26:29.980Z,99.90
2023-04-05T04:28:57.134Z,99.90
2023-04-05T04:31:24.077Z,99.90
2023-04-05T04:33:51.025Z,99.90
2023-04-05T04:36:19.139Z,99.90
2023-04-05T04:38:49.230Z,99.90
2023-04-05T04:41:20.185Z,99.90
2023-04-05T04:43:47.080Z,99.90
2023-04-05T04:46:19.222Z,99.90
2023-04-05T04:48:47.444Z,99.90
2023-04-05T04:51:14.343Z,99.90
2023-04-05T04:53:41.151Z,99.90
2023-04-05T04:56:08.934Z,99.90
2023-04-05T04:58:36.087Z,99.90
2023-04-05T05:01:09.127Z,99.90
2023-04-05T05:03:39.403Z,99.90
2023-04-05T05:06:06.928Z,99.90
2023-04-05T05:08:33.918Z,99.90
2023-04-05T05:11:01.829Z,99.90
2023-04-05T05:13:28.782Z,99.90
2023-04-05T05:15:56.281Z,99.90
2023-04-05T05:18:23.189Z,99.90
2023-04-05T05:20:53.284Z,99.90
2023-04-05T05:23:21.313Z,99.90
2023-04-05T05:25:48.537Z,99.90
2023-04-05T05:28:15.486Z,99.90
2023-04-05T05:30:42.743Z,99.90
2023-04-05T05:33:10.107Z,99.90
2023-04-05T05:35:38.293Z,99.90
2023-04-05T05:38:07.096Z,99.90
2023-04-05T05:40:36.170Z,99.90
2023-04-05T05:43:03.022Z,99.90
2023-04-05T05:45:29.939Z,99.90
2023-04-05T05:47:57.076Z,99.90
2023-04-05T05:50:24.007Z,99.90
2023-04-05T05:52:51.008Z,99.90
2023-04-05T05:55:18.102Z,99.90
2023-04-05T05:57:45.463Z,99.90
2023-04-05T06:00:13.348Z,99.90
2023-04-05T06:02:41.716Z,99.90
2023-04-05T06:05:09.096Z,99.90
2023-04-05T06:07:37.195Z,99.90
2023-04-05T06:10:08.463Z,99.90
2023-04-05T06:12:35.522Z,99.90
2023-04-05T06:15:02.579Z,99.90
2023-04-05T06:17:29.582Z,99.90
2023-04-05T06:19:56.548Z,99.90
2023-04-05T06:22:23.723Z,99.90
2023-04-05T06:24:50.637Z,99.90
2023-04-05T06:27:17.550Z,99.90
2023-04-05T06:29:44.425Z,99.90
2023-04-05T06:32:11.441Z,99.90
2023-04-05T06:34:38.313Z,99.90
2023-04-05T06:37:06.251Z,99.90
2023-04-05T06:39:33.169Z,99.90
2023-04-05T06:42:00.092Z,99.90
2023-04-05T06:44:27.022Z,99.90
2023-04-05T06:46:53.948Z,99.90
2023-04-05T06:49:21.335Z,99.90
2023-04-05T06:51:48.288Z,99.90
2023-04-05T06:54:15.812Z,99.90
2023-04-05T06:56:42.703Z,99.90
2023-04-05T06:59:09.652Z,99.90
2023-04-05T07:01:36.731Z,99.90
2023-04-05T07:04:03.692Z,99.90
2023-04-05T07:06:31.972Z,99.90
2023-04-05T07:08:58.920Z,99.90
2023-04-05T07:11:27.488Z,99.90
2023-04-05T07:13:54.369Z,99.90
2023-04-05T07:16:23.713Z,99.90
2023-04-05T07:18:51.266Z,99.90
2023-04-05T07:21:18.192Z,99.90
2023-04-05T07:23:45.129Z,99.90
2023-04-05T07:26:12.563Z,99.90
2023-04-05T07:28:40.445Z,99.90
2023-04-05T07:31:07.772Z,99.90
2023-04-05T07:33:34.673Z,99.90
2023-04-05T07:36:01.664Z,99.90
2023-04-05T07:38:29.890Z,99.90
2023-04-05T07:40:56.867Z,99.90
2023-04-05T07:43:25.649Z,99.90
2023-04-05T07:45:56.486Z,99.90
2023-04-05T07:48:23.409Z,99.90
2023-04-05T07:50:54.148Z,99.90
2023-04-05T07:53:21.270Z,99.90
2023-04-05T07:55:48.182Z,99.90
2023-04-05T07:58:16.333Z,99.90
2023-04-05T08:00:43.565Z,99.90
2023-04-05T08:03:10.842Z,99.10
2023-04-05T08:05:37.758Z,98.10
2023-04-05T08:08:04.774Z,97.40
2023-04-05T08:10:32.002Z,96.50
2023-04-05T08:12:58.910Z,96.30
2023-04-05T08:15:26.112Z,95.70
2023-04-05T08:17:53.007Z,95.20
2023-04-05T08:20:19.879Z,93.80
2023-04-05T08:22:46.860Z,93.50
2023-04-05T08:25:13.811Z,92.50
2023-04-05T08:27:41.399Z,91.30
2023-04-05T08:30:09.210Z,90.00
2023-04-05T08:32:36.385Z,90.20
2023-04-05T08:35:03.698Z,89.80
2023-04-05T08:37:37.167Z,89.10
2023-04-05T08:40:04.969Z,86.70
2023-04-05T08:42:37.651Z,87.30
2023-04-05T08:45:08.816Z,86.90
2023-04-05T08:47:37.527Z,86.90
2023-04-05T08:50:05.358Z,85.60
2023-04-05T08:52:34.780Z,84.00
2023-04-05T08:55:01.689Z,82.60
2023-04-05T08:57:31.120Z,82.50
2023-04-05T09:00:00.517Z,80.10
2023-04-05T09:02:28.653Z,79.10
2023-04-05T09:04:56.655Z,76.70
2023-04-05T09:07:24.778Z,74.10
2023-04-05T09:09:54.897Z,73.20
2023-04-05T09:12:25.857Z,72.30
2023-04-05T09:14:53.498Z,68.50
2023-04-05T09:17:21.600Z,67.70
2023-04-05T09:19:51.380Z,67.80
2023-04-05T09:22:20.843Z,66.10
2023-04-05T09:24:50.561Z,64.00
2023-04-05T09:27:19.803Z,63.00
2023-04-05T09:29:48.296Z,62.80
2023-04-05T09:32:16.516Z,61.80
2023-04-05T09:34:44.144Z,60.60
2023-04-05T09:37:19.842Z,60.30
2023-04-05T09:39:52.180Z,59.90
2023-04-05T09:42:23.402Z,59.20
2023-04-05T09:44:57.099Z,58.70
2023-04-05T09:47:31.270Z,58.00
2023-04-05T09:50:06.306Z,57.20
2023-04-05T09:52:34.015Z,57.00
2023-04-05T09:55:03.185Z,55.70
2023-04-05T09:57:37.752Z,54.80
2023-04-05T10:00:06.216Z,54.20
2023-04-05T10:02:38.638Z,54.10
2023-04-05T10:05:16.563Z,52.30
2023-04-05T10:07:43.924Z,50.90
2023-04-05T10:10:12.956Z,50.00
2023-04-05T10:12:41.976Z,50.70
2023-04-05T10:15:11.343Z,50.20
2023-04-05T10:17:51.709Z,49.60
2023-04-05T10:20:23.695Z,49.30
2023-04-05T10:23:38.687Z,49.10
2023-04-05T10:26:20.096Z,48.00
2023-04-05T10:28:50.833Z,48.70
2023-04-05T10:31:38.059Z,51.40
2023-04-05T10:34:16.491Z,49.70
2023-04-05T10:37:03.243Z,48.90
2023-04-05T10:39:45.638Z,48.50
2023-04-05T10:42:24.633Z,47.30
2023-04-05T10:45:04.784Z,46.50
2023-04-05T10:47:37.037Z,47.00
2023-04-05T10:50:09.041Z,47.40
2023-04-05T10:52:37.158Z,48.80
2023-04-05T10:55:05.476Z,47.70
2023-04-05T10:57:33.523Z,48.90
2023-04-05T11:00:01.510Z,47.10
2023-04-05T11:02:30.285Z,46.70
2023-04-05T11:04:57.758Z,49.20
2023-04-05T11:07:24.846Z,49.90
2023-04-05T11:10:05.039Z,50.10
2023-04-05T11:12:47.060Z,50.50
2023-04-05T11:15:28.998Z,50.70
2023-04-05T11:18:22.761Z,50.60
2023-04-05T11:21:07.360Z,50.50
2023-04-05T11:24:00.188Z,51.30
2023-04-05T11:26:33.862Z,51.60
2023-04-05T11:29:00.928Z,51.60
2023-04-05T11:31:27.925Z,51.60
2023-04-05T11:34:00.077Z,51.50
2023-04-05T11:36:48.386Z,52.40
2023-04-05T11:39:18.471Z,52.60
2023-04-05T11:41:47.349Z,52.50
2023-04-05T11:44:16.346Z,53.00
2023-04-05T11:46:46.153Z,53.50
2023-04-05T11:49:14.237Z,53.70
2023-04-05T11:51:42.878Z,54.10
2023-04-05T11:54:12.858Z,54.30
2023-04-05T11:56:39.759Z,54.60
2023-04-05T11:59:07.660Z,54.80
2023-04-05T12:01:34.651Z,55.00
2023-04-05T12:04:01.709Z,54.70
2023-04-05T12:06:28.759Z,54.70
2023-04-05T12:08:56.605Z,55.00
2023-04-05T12:11:33.692Z,55.50
2023-04-05T12:14:02.241Z,55.90
2023-04-05T12:16:29.923Z,56.20
2023-04-05T12:18:59.512Z,56.30
2023-04-05T12:21:27.738Z,56.10
2023-04-05T12:23:55.658Z,56.70
2023-04-05T12:26:23.190Z,56.80
2023-04-05T12:28:58.142Z,56.70
2023-04-05T12:31:41.487Z,57.20
2023-04-05T12:34:09.593Z,57.20
2023-04-05T12:36:37.565Z,57.60
2023-04-05T12:39:09.410Z,57.50
2023-04-05T12:41:37.731Z,58.00
2023-04-05T12:44:37.729Z,58.00
2023-04-05T12:47:09.250Z,57.80
2023-04-05T12:49:38.704Z,58.10
2023-04-05T12:52:05.946Z,58.20
2023-04-05T12:54:34.320Z,58.50
2023-04-05T12:57:04.519Z,58.60
2023-04-05T12:59:32.511Z,58.70
2023-04-05T13:01:59.478Z,58.40
2023-04-05T13:04:26.835Z,59.10
2023-04-05T13:06:55.183Z,59.10
2023-04-05T13:09:22.290Z,59.40
2023-04-05T13:11:49.166Z,59.30
2023-04-05T13:14:16.169Z,59.60
2023-04-05T13:16:43.140Z,59.80
2023-04-05T13:19:10.065Z,59.80
2023-04-05T13:21:36.966Z,60.10
2023-04-05T13:24:04.013Z,60.30
2023-04-05T13:26:30.931Z,60.00
2023-04-05T13:28:57.794Z,60.50
2023-04-05T13:31:24.782Z,60.50
2023-04-05T13:33:51.971Z,59.70
2023-04-05T13:36:18.869Z,59.50
2023-04-05T13:38:45.904Z,59.60
2023-04-05T13:41:14.067Z,60.20
2023-04-05T13:43:41.978Z,60.80
2023-04-05T13:46:08.926Z,61.30
2023-04-05T13:48:35.937Z,61.70
2023-04-05T13:51:03.038Z,61.40
2023-04-05T13:53:30.415Z,61.30
2023-04-05T13:55:58.298Z,61.30
2023-04-05T13:58:26.147Z,61.60
2023-04-05T14:00:53.200Z,62.50
2023-04-05T14:03:20.179Z,61.90
2023-04-05T14:05:50.318Z,62.00
2023-04-05T14:08:18.799Z,62.00
2023-04-05T14:10:45.732Z,62.80
2023-04-05T14:13:16.257Z,63.60
2023-04-05T14:15:44.085Z,64.20
2023-04-05T14:18:11.750Z,64.00
2023-04-05T14:20:39.992Z,64.00
2023-04-05T14:23:07.156Z,63.70
2023-04-05T14:25:34.085Z,63.40
2023-04-05T14:28:01.193Z,62.90
2023-04-05T14:30:28.204Z,63.00
2023-04-05T14:32:57.338Z,63.70
2023-04-05T14:35:24.656Z,63.20
2023-04-05T14:37:52.599Z,63.90
2023-04-05T14:40:19.495Z,64.50
2023-04-05T14:42:49.962Z,64.80
2023-04-05T14:45:18.008Z,64.40
2023-04-05T14:47:44.959Z,64.70
2023-04-05T14:50:12.949Z,64.70
2023-04-05T14:52:40.173Z,64.80
2023-04-05T14:55:07.589Z,64.80
2023-04-05T14:57:34.529Z,65.10
2023-04-05T15:00:01.560Z,65.30
2023-04-05T15:02:28.778Z,65.90
2023-04-05T15:04:55.829Z,66.60
2023-04-05T15:07:22.749Z,67.00
2023-04-05T15:09:49.646Z,67.00
2023-04-05T15:12:16.577Z,67.10
2023-04-05T15:14:45.655Z,67.30
2023-04-05T15:17:12.969Z,67.50
2023-04-05T15:19:40.027Z,67.50
2023-04-05T15:22:07.136Z,67.40
2023-04-05T15:24:34.527Z,67.50
2023-04-05T15:27:04.680Z,67.70
2023-04-05T15:29:32.882Z,68.00
2023-04-05T15:32:00.999Z,67.60
2023-04-05T15:34:28.842Z,69.20
2023-04-05T15:36:56.057Z,68.80
2023-04-05T15:39:23.589Z,68.90
2023-04-05T15:41:51.541Z,69.20
2023-04-05T15:44:18.540Z,69.30
2023-04-05T15:46:45.743Z,69.00
2023-04-05T15:49:14.159Z,69.20
2023-04-05T15:51:42.438Z,69.30
2023-04-05T15:54:09.442Z,70.10
2023-04-05T15:56:37.842Z,69.50
2023-04-05T15:59:05.123Z,69.60
2023-04-05T16:01:32.328Z,69.80
2023-04-05T16:03:59.364Z,70.10
2023-04-05T16:06:29.488Z,70.30
2023-04-05T16:08:56.386Z,70.30
2023-04-05T16:11:23.655Z,70.10
2023-04-05T16:13:50.892Z,70.00
2023-04-05T16:16:29.924Z,70.30
2023-04-05T16:19:05.425Z,70.20
2023-04-05T16:21:32.659Z,70.50
2023-04-05T16:24:01.280Z,70.10
2023-04-05T16:26:28.600Z,70.30
2023-04-05T16:28:55.560Z,70.60
2023-04-05T16:31:22.620Z,70.90
2023-04-05T16:33:49.671Z,70.50
2023-04-05T16:36:16.818Z,70.70
2023-04-05T16:38:45.638Z,70.90
2023-04-05T16:41:14.972Z,71.00
2023-04-05T16:43:41.910Z,71.20
2023-04-05T16:46:09.945Z,71.10
2023-04-05T16:48:37.936Z,71.40
2023-04-05T16:51:06.971Z,72.10
2023-04-05T16:53:34.282Z,72.60
2023-04-05T16:56:02.241Z,73.10
2023-04-05T16:58:29.736Z,73.40
2023-04-05T17:00:59.043Z,73.50
2023-04-05T17:03:26.614Z,73.70
2023-04-05T17:05:53.636Z,74.30
2023-04-05T17:08:20.641Z,74.70
2023-04-05T17:10:47.794Z,74.40
2023-04-05T17:13:18.158Z,74.60
2023-04-05T17:15:45.339Z,74.80
2023-04-05T17:18:12.521Z,75.10
2023-04-05T17:20:39.664Z,75.10
2023-04-05T17:23:06.555Z,75.50
2023-04-05T17:25:33.519Z,75.80
2023-04-05T17:28:00.423Z,76.90
2023-04-05T17:30:27.770Z,76.40
2023-04-05T17:32:55.212Z,76.80
2023-04-05T17:35:22.134Z,78.10
2023-04-05T17:37:49.108Z,78.20
2023-04-05T17:40:16.439Z,78.00
2023-04-05T17:42:43.463Z,78.00
2023-04-05T17:45:11.410Z,78.10
2023-04-05T17:47:38.580Z,78.40
2023-04-05T17:50:06.191Z,78.60
2023-04-05T17:52:33.130Z,78.90
2023-04-05T17:55:00.052Z,79.00
2023-04-05T17:57:27.046Z,79.40
2023-04-05T17:59:53.983Z,79.50
2023-04-05T18:02:20.959Z,79.80
2023-04-05T18:04:47.938Z,80.40
2023-04-05T18:07:14.930Z,80.80
2023-04-05T18:09:42.554Z,80.80
2023-04-05T18:12:10.160Z,80.80
2023-04-05T18:14:37.237Z,80.90
2023-04-05T18:17:07.593Z,81.20
2023-04-05T18:19:34.744Z,81.60
2023-04-05T18:22:01.783Z,82.00
2023-04-05T18:24:29.698Z,82.30
2023-04-05T18:26:57.526Z,82.60
2023-04-05T18:29:28.402Z,83.00
2023-04-05T18:31:56.186Z,83.20
2023-04-05T18:34:23.205Z,83.40
2023-04-05T18:36:51.399Z,83.50
2023-04-05T18:39:20.199Z,84.00
2023-04-05T18:41:47.579Z,84.20
2023-04-05T18:44:16.092Z,84.60
2023-04-05T18:46:44.235Z,84.70
2023-04-05T18:49:11.556Z,85.00
2023-04-05T18:51:38.499Z,85.30
2023-04-05T18:54:05.603Z,86.00
2023-04-05T18:56:32.667Z,85.80
2023-04-05T18:58:59.592Z,86.10
2023-04-05T19:01:26.623Z,86.90
2023-04-05T19:03:53.646Z,86.30
2023-04-05T19:06:20.669Z,87.10
2023-04-05T19:08:48.257Z,87.30
2023-04-05T19:11:18.556Z,87.90
2023-04-05T19:13:46.477Z,88.30
2023-04-05T19:16:13.523Z,88.30
2023-04-05T19:18:40.573Z,88.30
2023-04-05T19:21:08.821Z,88.60
2023-04-05T19:23:35.818Z,88.60
2023-04-05T19:26:02.839Z,88.90
2023-04-05T19:28:29.760Z,88.90
2023-04-05T19:30:57.592Z,89.10
2023-04-05T19:33:24.561Z,89.20
2023-04-05T19:35:52.054Z,89.60
2023-04-05T19:38:22.280Z,89.90
2023-04-05T19:40:49.405Z,90.00
2023-04-05T19:43:17.275Z,90.10
2023-04-05T19:45:44.424Z,90.20
2023-04-05T19:48:40.707Z,90.10
2023-04-05T19:51:12.246Z,90.00
2023-04-05T19:53:49.042Z,89.70
2023-04-05T19:56:31.312Z,89.40
2023-04-05T19:59:28.440Z,89.30
2023-04-05T20:01:55.881Z,89.40
2023-04-05T20:04:24.694Z,89.70
2023-04-05T20:06:55.917Z,90.00
2023-04-05T20:09:31.078Z,90.10
2023-04-05T20:12:03.602Z,90.20
2023-04-05T20:14:41.384Z,90.20
2023-04-05T20:17:08.695Z,90.30
2023-04-05T20:19:41.521Z,90.40
2023-04-05T20:22:09.477Z,90.30
2023-04-05T20:24:40.031Z,90.40
2023-04-05T20:27:07.125Z,90.40
2023-04-05T20:29:36.060Z,90.80
2023-04-05T20:32:05.630Z,90.40
2023-04-05T20:34:34.445Z,90.40
2023-04-05T20:37:11.185Z,90.30
2023-04-05T20:39:38.392Z,90.30
2023-04-05T20:42:05.389Z,90.20
2023-04-05T20:44:32.309Z,90.20
2023-04-05T20:46:59.695Z,90.40
2023-04-05T20:49:28.056Z,90.00
2023-04-05T20:51:56.728Z,90.00
2023-04-05T20:54:24.450Z,89.90
2023-04-05T20:56:51.386Z,89.80
2023-04-05T20:59:18.378Z,89.70
2023-04-05T21:01:47.349Z,89.50
2023-04-05T21:04:14.809Z,89.30
2023-04-05T21:06:42.413Z,88.90
2023-04-05T21:09:10.130Z,88.60
2023-04-05T21:11:37.539Z,88.50
2023-04-05T21:14:04.548Z,88.30
2023-04-05T21:16:31.834Z,88.10
2023-04-05T21:18:58.885Z,87.90
2023-04-05T21:21:26.266Z,87.80
2023-04-05T21:23:53.360Z,87.60
2023-04-05T21:26:20.288Z,87.40
2023-04-05T21:28:47.173Z,87.10
2023-04-05T21:31:14.142Z,87.00
2023-04-05T21:33:41.668Z,86.90
2023-04-05T21:36:08.804Z,86.60
2023-04-05T21:38:36.018Z,86.60
2023-04-05T21:41:02.948Z,86.60
2023-04-05T21:43:29.870Z,86.50
2023-04-05T21:45:56.946Z,86.60
2023-04-05T21:48:24.888Z,86.70
2023-04-05T21:50:51.905Z,86.60
2023-04-05T21:53:18.979Z,86.60
2023-04-05T21:55:46.166Z,86.60
2023-04-05T21:58:13.174Z,86.50
2023-04-05T22:00:40.177Z,86.50
2023-04-05T22:03:07.300Z,86.50
2023-04-05T22:05:38.552Z,86.60
2023-04-05T22:08:07.416Z,86.50
2023-04-05T22:10:35.695Z,86.60
2023-04-05T22:13:02.726Z,86.60
2023-04-05T22:15:29.836Z,86.70
2023-04-05T22:17:56.787Z,86.80
2023-04-05T22:20:23.720Z,86.90
2023-04-05T22:22:50.968Z,87.10
2023-04-05T22:25:17.916Z,87.20
2023-04-05T22:27:44.885Z,87.30
2023-04-05T22:30:12.142Z,87.50
2023-04-05T22:32:39.063Z,87.60
2023-04-05T22:35:06.421Z,87.60
2023-04-05T22:37:36.524Z,87.70
2023-04-05T22:40:04.694Z,87.60
2023-04-05T22:42:31.781Z,87.90
2023-04-05T22:44:58.769Z,88.20
2023-04-05T22:47:26.129Z,88.30
2023-04-05T22:49:53.260Z,88.50
2023-04-05T22:52:20.493Z,88.60
2023-04-05T22:54:47.457Z,88.60
2023-04-05T22:57:14.427Z,88.70
2023-04-05T22:59:41.489Z,88.70
2023-04-05T23:02:09.518Z,88.80
2023-04-05T23:04:36.547Z,89.00
2023-04-05T23:07:04.552Z,89.20
2023-04-05T23:09:31.468Z,89.30
2023-04-05T23:11:58.361Z,89.20
2023-04-05T23:14:25.656Z,89.30
2023-04-05T23:16:52.605Z,89.40
2023-04-05T23:19:19.508Z,89.50
2023-04-05T23:21:46.598Z,89.60
2023-04-05T23:24:13.876Z,89.70
2023-04-05T23:26:40.911Z,90.00
2023-04-05T23:29:08.087Z,90.00
2023-04-05T23:31:35.411Z,90.10
2023-04-05T23:34:02.436Z,90.00
2023-04-05T23:36:29.380Z,90.00
2023-04-05T23:38:58.620Z,90.10
2023-04-05T23:41:27.181Z,90.10
2023-04-05T23:43:54.189Z,90.10
2023-04-05T23:46:22.111Z,90.20
2023-04-05T23:48:49.643Z,90.20
2023-04-05T23:51:17.087Z,90.30
2023-04-05T23:53:43.994Z,90.40
2023-04-05T23:56:10.957Z,90.50
2023-04-05T23:58:37.914Z,90.60
